Terminal Aerodrome Forecast
Issued by NWS

Home | Current Version | Previous Version | Text Only | Print | Product List | Glossary On
Versions: 1 2 3 4 5 6 7 8 9 10 11 12
000
FTUS45 KSLC 281120
TAFEVW
TAF
KEVW 281120Z 2812/2912 18006KT P6SM SKC
     FM281600 22011G17KT P6SM FEW080
     FM281900 25018G26KT P6SM VCSH SCT080
     FM290300 29010KT P6SM SCT080
     FM290700 24007KT P6SM FEW080=

USA.gov is the U.S. government's official web portal to all federal, state and local government web resources and services.